sensor_id;sensor_type;location;lat;lon;timestamp;pressure;altitude;pressure_sealevel;temperature;humidity
3968;BME280;9221;42.646;23.380;2022-11-04T00:01:42;94655.69;;;13.95;63.88
3968;BME280;9221;42.646;23.380;2022-11-04T00:04:09;94748.09;;;14.31;63.99
3968;BME280;9221;42.646;23.380;2022-11-04T00:06:36;94646.81;;;13.63;64.88
3968;BME280;9221;42.646;23.380;2022-11-04T00:09:03;94714.53;;;13.98;65.40
3968;BME280;9221;42.646;23.380;2022-11-04T00:11:29;94730.56;;;14.05;65.12
3968;BME280;9221;42.646;23.380;2022-11-04T00:14:14;94706.72;;;13.97;65.42
3968;BME280;9221;42.646;23.380;2022-11-04T00:16:40;94737.19;;;13.93;65.48
3968;BME280;9221;42.646;23.380;2022-11-04T00:19:24;94711.22;;;13.80;65.52
3968;BME280;9221;42.646;23.380;2022-11-04T00:21:50;94704.06;;;13.80;66.14
3968;BME280;9221;42.646;23.380;2022-11-04T00:24:34;94726.31;;;13.79;66.36
3968;BME280;9221;42.646;23.380;2022-11-04T00:27:20;94708.72;;;13.78;65.92
3968;BME280;9221;42.646;23.380;2022-11-04T00:30:07;94584.25;;;13.04;66.53
3968;BME280;9221;42.646;23.380;2022-11-04T00:32:34;94655.41;;;13.48;66.73
3968;BME280;9221;42.646;23.380;2022-11-04T00:35:18;94707.59;;;13.64;66.93
3968;BME280;9221;42.646;23.380;2022-11-04T00:37:44;94709.06;;;13.75;67.63
3968;BME280;9221;42.646;23.380;2022-11-04T00:40:13;94725.78;;;13.76;67.46
3968;BME280;9221;42.646;23.380;2022-11-04T00:42:39;94635.53;;;13.52;67.23
3968;BME280;9221;42.646;23.380;2022-11-04T00:45:05;94644.00;;;13.56;66.87
3968;BME280;9221;42.646;23.380;2022-11-04T00:47:30;94718.34;;;13.87;67.02
3968;BME280;9221;42.646;23.380;2022-11-04T00:49:56;94634.72;;;13.52;67.03
3968;BME280;9221;42.646;23.380;2022-11-04T00:52:22;94648.13;;;13.67;66.57
3968;BME280;9221;42.646;23.380;2022-11-04T00:54:47;94710.38;;;13.96;66.35
3968;BME280;9221;42.646;23.380;2022-11-04T00:57:13;94651.75;;;13.82;66.12
3968;BME280;9221;42.646;23.380;2022-11-04T00:59:39;94606.56;;;13.51;66.12
3968;BME280;9221;42.646;23.380;2022-11-04T01:02:06;94616.50;;;13.41;66.75
3968;BME280;9221;42.646;23.380;2022-11-04T01:04:31;94672.63;;;13.69;67.35
3968;BME280;9221;42.646;23.380;2022-11-04T01:06:57;94612.84;;;13.17;68.04
3968;BME280;9221;42.646;23.380;2022-11-04T01:09:23;94663.38;;;13.40;68.33
3968;BME280;9221;42.646;23.380;2022-11-04T01:11:48;94591.84;;;12.99;68.37
3968;BME280;9221;42.646;23.380;2022-11-04T01:14:14;94680.06;;;13.57;67.93
3968;BME280;9221;42.646;23.380;2022-11-04T01:16:40;94705.59;;;13.66;67.50
3968;BME280;9221;42.646;23.380;2022-11-04T01:19:05;94611.00;;;13.34;67.25
3968;BME280;9221;42.646;23.380;2022-11-04T01:21:31;94654.44;;;13.58;67.70
3968;BME280;9221;42.646;23.380;2022-11-04T01:23:56;94653.41;;;13.26;68.32
3968;BME280;9221;42.646;23.380;2022-11-04T01:26:25;94596.44;;;12.89;68.76
3968;BME280;9221;42.646;23.380;2022-11-04T01:28:51;94690.47;;;13.34;68.53
3968;BME280;9221;42.646;23.380;2022-11-04T01:31:20;94583.22;;;12.80;69.33
3968;BME280;9221;42.646;23.380;2022-11-04T01:33:47;94685.84;;;13.28;69.38
3968;BME280;9221;42.646;23.380;2022-11-04T01:36:13;94674.91;;;13.14;69.29
3968;BME280;9221;42.646;23.380;2022-11-04T01:38:39;94638.34;;;13.01;69.93
3968;BME280;9221;42.646;23.380;2022-11-04T01:41:05;94623.28;;;13.02;70.02
3968;BME280;9221;42.646;23.380;2022-11-04T01:46:40;94634.69;;;13.11;70.51
3968;BME280;9221;42.646;23.380;2022-11-04T01:51:57;94581.59;;;13.04;69.54
3968;BME280;9221;42.646;23.380;2022-11-04T01:54:25;94641.97;;;13.33;69.30
3968;BME280;9221;42.646;23.380;2022-11-04T01:56:52;94669.63;;;13.31;69.49
3968;BME280;9221;42.646;23.380;2022-11-04T01:59:23;94645.13;;;13.29;69.89
3968;BME280;9221;42.646;23.380;2022-11-04T02:01:50;94640.34;;;13.41;69.58
3968;BME280;9221;42.646;23.380;2022-11-04T02:04:16;94670.00;;;13.44;69.67
3968;BME280;9221;42.646;23.380;2022-11-04T02:06:56;94674.47;;;13.44;69.69
3968;BME280;9221;42.646;23.380;2022-11-04T02:09:23;94575.97;;;12.99;69.88
3968;BME280;9221;42.646;23.380;2022-11-04T02:11:49;94605.72;;;13.17;70.28
3968;BME280;9221;42.646;23.380;2022-11-04T02:14:34;94663.16;;;13.33;70.07
3968;BME280;9221;42.646;23.380;2022-11-04T02:27:55;94581.69;;;12.61;71.13
3968;BME280;9221;42.646;23.380;2022-11-04T02:30:40;94561.06;;;12.73;70.50
3968;BME280;9221;42.646;23.380;2022-11-04T02:33:36;94671.63;;;13.29;69.91
3968;BME280;9221;42.646;23.380;2022-11-04T02:36:21;94592.50;;;13.09;69.37
3968;BME280;9221;42.646;23.380;2022-11-04T02:39:34;94713.78;;;13.06;70.25
3968;BME280;9221;42.646;23.380;2022-11-04T02:42:13;94628.72;;;12.92;70.62
3968;BME280;9221;42.646;23.380;2022-11-04T02:47:31;94625.28;;;13.00;70.40
3968;BME280;9221;42.646;23.380;2022-11-04T02:50:07;94612.03;;;13.08;70.88
3968;BME280;9221;42.646;23.380;2022-11-04T02:55:38;94613.97;;;12.65;71.75
3968;BME280;9221;42.646;23.380;2022-11-04T02:58:05;94600.78;;;12.22;73.72
3968;BME280;9221;42.646;23.380;2022-11-04T03:00:34;94552.31;;;12.05;73.32
3968;BME280;9221;42.646;23.380;2022-11-04T03:03:10;94607.00;;;12.56;73.15
3968;BME280;9221;42.646;23.380;2022-11-04T03:05:39;94632.81;;;12.62;73.10
3968;BME280;9221;42.646;23.380;2022-11-04T03:08:11;94606.91;;;12.23;72.71
3968;BME280;9221;42.646;23.380;2022-11-04T03:10:45;94617.41;;;12.06;74.75
3968;BME280;9221;42.646;23.380;2022-11-04T03:13:17;94619.75;;;12.17;75.34
3968;BME280;9221;42.646;23.380;2022-11-04T03:15:53;94641.69;;;12.44;74.06
3968;BME280;9221;42.646;23.380;2022-11-04T03:18:32;94613.53;;;12.27;73.87
3968;BME280;9221;42.646;23.380;2022-11-04T03:21:02;94560.84;;;11.91;74.38
3968;BME280;9221;42.646;23.380;2022-11-04T03:23:30;94617.00;;;12.35;74.02
3968;BME280;9221;42.646;23.380;2022-11-04T03:26:27;94614.91;;;12.47;73.62
3968;BME280;9221;42.646;23.380;2022-11-04T03:29:18;94565.75;;;12.20;72.98
3968;BME280;9221;42.646;23.380;2022-11-04T03:34:30;94646.03;;;12.53;72.61
3968;BME280;9221;42.646;23.380;2022-11-04T03:36:56;94608.31;;;12.51;72.45
3968;BME280;9221;42.646;23.380;2022-11-04T03:39:22;94571.56;;;12.32;72.35
3968;BME280;9221;42.646;23.380;2022-11-04T03:41:56;94630.81;;;12.56;72.57
3968;BME280;9221;42.646;23.380;2022-11-04T03:44:23;94616.75;;;12.55;72.31
3968;BME280;9221;42.646;23.380;2022-11-04T03:46:51;94648.16;;;12.50;72.64
3968;BME280;9221;42.646;23.380;2022-11-04T03:49:19;94577.22;;;12.37;72.03
3968;BME280;9221;42.646;23.380;2022-11-04T03:51:45;94616.56;;;12.48;72.38
3968;BME280;9221;42.646;23.380;2022-11-04T03:54:10;94602.19;;;12.43;71.70
3968;BME280;9221;42.646;23.380;2022-11-04T03:56:47;94647.00;;;12.52;71.28
3968;BME280;9221;42.646;23.380;2022-11-04T04:02:17;94609.75;;;12.38;71.58
3968;BME280;9221;42.646;23.380;2022-11-04T04:05:00;94597.69;;;12.35;72.14
3968;BME280;9221;42.646;23.380;2022-11-04T04:07:43;94595.00;;;12.18;72.76
3968;BME280;9221;42.646;23.380;2022-11-04T04:10:13;94634.16;;;12.23;72.83
3968;BME280;9221;42.646;23.380;2022-11-04T04:13:13;94535.69;;;11.78;73.07
3968;BME280;9221;42.646;23.380;2022-11-04T04:16:06;94601.72;;;11.78;73.72
3968;BME280;9221;42.646;23.380;2022-11-04T04:18:40;94570.09;;;11.34;75.49
3968;BME280;9221;42.646;23.380;2022-11-04T04:21:08;94544.13;;;11.21;76.50
3968;BME280;9221;42.646;23.380;2022-11-04T04:23:36;94603.75;;;11.58;76.93
3968;BME280;9221;42.646;23.380;2022-11-04T04:26:23;94606.13;;;11.69;77.02
3968;BME280;9221;42.646;23.380;2022-11-04T04:29:08;94599.75;;;11.80;76.87
3968;BME280;9221;42.646;23.380;2022-11-04T04:31:36;94583.09;;;11.54;77.56
3968;BME280;9221;42.646;23.380;2022-11-04T04:34:17;94530.25;;;10.93;78.60
3968;BME280;9221;42.646;23.380;2022-11-04T04:36:53;94579.09;;;11.49;78.79
3968;BME280;9221;42.646;23.380;2022-11-04T04:39:22;94537.44;;;11.35;77.57
3968;BME280;9221;42.646;23.380;2022-11-04T04:42:08;94609.91;;;11.67;77.78
3968;BME280;9221;42.646;23.380;2022-11-04T04:44:52;94584.09;;;11.52;78.38
3968;BME280;9221;42.646;23.380;2022-11-04T04:47:43;94620.44;;;11.59;78.92
3968;BME280;9221;42.646;23.380;2022-11-04T04:50:13;94538.75;;;11.31;78.64
3968;BME280;9221;42.646;23.380;2022-11-04T04:52:44;94602.72;;;11.77;78.15
3968;BME280;9221;42.646;23.380;2022-11-04T04:55:10;94634.47;;;11.85;77.86
3968;BME280;9221;42.646;23.380;2022-11-04T04:57:36;94539.84;;;11.55;76.92
3968;BME280;9221;42.646;23.380;2022-11-04T05:00:03;94581.16;;;11.64;76.71
3968;BME280;9221;42.646;23.380;2022-11-04T05:02:29;94546.47;;;11.59;76.24
3968;BME280;9221;42.646;23.380;2022-11-04T05:04:54;94583.53;;;11.75;76.42
3968;BME280;9221;42.646;23.380;2022-11-04T05:07:21;94600.09;;;11.85;76.76
3968;BME280;9221;42.646;23.380;2022-11-04T05:09:46;94592.16;;;11.77;76.80
3968;BME280;9221;42.646;23.380;2022-11-04T05:12:11;94610.28;;;11.72;76.46
3968;BME280;9221;42.646;23.380;2022-11-04T05:14:37;94460.91;;;10.82;76.27
3968;BME280;9221;42.646;23.380;2022-11-04T05:17:03;94606.34;;;11.76;75.93
3968;BME280;9221;42.646;23.380;2022-11-04T05:19:28;94661.16;;;11.74;76.00
3968;BME280;9221;42.646;23.380;2022-11-04T05:21:54;94612.97;;;11.80;75.96
3968;BME280;9221;42.646;23.380;2022-11-04T05:24:19;94619.50;;;11.94;75.59
3968;BME280;9221;42.646;23.380;2022-11-04T05:26:45;94607.69;;;11.80;75.54
3968;BME280;9221;42.646;23.380;2022-11-04T05:29:10;94578.84;;;11.61;75.35
3968;BME280;9221;42.646;23.380;2022-11-04T05:31:37;94551.47;;;11.09;76.59
3968;BME280;9221;42.646;23.380;2022-11-04T05:34:02;94557.38;;;11.03;77.43
3968;BME280;9221;42.646;23.380;2022-11-04T05:36:29;94608.25;;;11.40;77.21
3968;BME280;9221;42.646;23.380;2022-11-04T05:38:57;94608.16;;;11.49;77.33
3968;BME280;9221;42.646;23.380;2022-11-04T05:41:22;94574.28;;;11.45;76.62
3968;BME280;9221;42.646;23.380;2022-11-04T05:43:58;94589.09;;;11.64;75.99
3968;BME280;9221;42.646;23.380;2022-11-04T05:46:24;94590.47;;;11.76;75.33
3968;BME280;9221;42.646;23.380;2022-11-04T05:48:50;94569.19;;;11.78;75.12
3968;BME280;9221;42.646;23.380;2022-11-04T05:51:18;94614.13;;;12.12;74.68
3968;BME280;9221;42.646;23.380;2022-11-04T05:53:44;94629.03;;;12.22;74.85
3968;BME280;9221;42.646;23.380;2022-11-04T05:56:09;94582.78;;;11.91;74.62
3968;BME280;9221;42.646;23.380;2022-11-04T05:58:35;94621.97;;;12.30;73.49
3968;BME280;9221;42.646;23.380;2022-11-04T06:01:21;94594.00;;;12.19;73.62
3968;BME280;9221;42.646;23.380;2022-11-04T06:03:48;94644.69;;;12.49;73.84
3968;BME280;9221;42.646;23.380;2022-11-04T06:06:14;94580.59;;;12.13;73.83
3968;BME280;9221;42.646;23.380;2022-11-04T06:08:39;94589.69;;;12.18;73.49
3968;BME280;9221;42.646;23.380;2022-11-04T06:11:04;94629.13;;;12.46;73.30
3968;BME280;9221;42.646;23.380;2022-11-04T06:13:30;94644.03;;;12.64;73.06
3968;BME280;9221;42.646;23.380;2022-11-04T06:15:55;94611.75;;;12.52;72.64
3968;BME280;9221;42.646;23.380;2022-11-04T06:18:21;94632.34;;;12.75;72.78
3968;BME280;9221;42.646;23.380;2022-11-04T06:20:46;94663.31;;;12.91;72.14
3968;BME280;9221;42.646;23.380;2022-11-04T06:23:12;94590.50;;;12.62;72.17
3968;BME280;9221;42.646;23.380;2022-11-04T06:25:37;94586.19;;;12.69;71.79
3968;BME280;9221;42.646;23.380;2022-11-04T06:28:03;94650.59;;;13.19;71.59
3968;BME280;9221;42.646;23.380;2022-11-04T06:30:28;94588.53;;;13.05;70.37
3968;BME280;9221;42.646;23.380;2022-11-04T06:32:54;94652.94;;;13.47;70.34
3968;BME280;9221;42.646;23.380;2022-11-04T06:35:19;94649.13;;;13.58;70.24
3968;BME280;9221;42.646;23.380;2022-11-04T06:37:44;94662.38;;;13.58;69.74
3968;BME280;9221;42.646;23.380;2022-11-04T06:40:10;94674.44;;;13.77;69.76
3968;BME280;9221;42.646;23.380;2022-11-04T06:42:35;94575.28;;;13.54;69.24
3968;BME280;9221;42.646;23.380;2022-11-04T06:45:01;94661.91;;;14.18;68.32
3968;BME280;9221;42.646;23.380;2022-11-04T06:47:26;94649.50;;;14.67;66.77
3968;BME280;9221;42.646;23.380;2022-11-04T06:49:52;94603.44;;;14.43;66.42
3968;BME280;9221;42.646;23.380;2022-11-04T06:52:17;94681.81;;;15.02;65.50
3968;BME280;9221;42.646;23.380;2022-11-04T06:54:43;94601.72;;;14.90;65.01
3968;BME280;9221;42.646;23.380;2022-11-04T06:57:10;94640.28;;;15.32;64.57
3968;BME280;9221;42.646;23.380;2022-11-04T06:59:36;94648.22;;;15.55;63.59
3968;BME280;9221;42.646;23.380;2022-11-04T07:02:01;94615.97;;;15.59;63.34
3968;BME280;9221;42.646;23.380;2022-11-04T07:04:27;94669.41;;;16.02;62.87
3968;BME280;9221;42.646;23.380;2022-11-04T07:06:52;94608.50;;;16.07;61.74
3968;BME280;9221;42.646;23.380;2022-11-04T07:09:18;94637.66;;;16.45;61.11
3968;BME280;9221;42.646;23.380;2022-11-04T07:11:44;94635.06;;;16.67;60.41
3968;BME280;9221;42.646;23.380;2022-11-04T07:14:10;94633.41;;;16.66;59.93
3968;BME280;9221;42.646;23.380;2022-11-04T07:16:36;94501.56;;;15.97;59.40
3968;BME280;9221;42.646;23.380;2022-11-04T07:19:02;94626.16;;;16.89;59.58
3968;BME280;9221;42.646;23.380;2022-11-04T07:21:28;94637.00;;;17.31;58.06
3968;BME280;9221;42.646;23.380;2022-11-04T07:23:54;94572.97;;;17.24;57.84
3968;BME280;9221;42.646;23.380;2022-11-04T07:26:19;94650.78;;;17.56;58.07
3968;BME280;9221;42.646;23.380;2022-11-04T07:28:45;94565.81;;;17.53;57.57
3968;BME280;9221;42.646;23.380;2022-11-04T07:31:12;94621.66;;;18.12;57.00
3968;BME280;9221;42.646;23.380;2022-11-04T07:33:38;94561.13;;;17.90;56.36
3968;BME280;9221;42.646;23.380;2022-11-04T07:36:05;94563.75;;;18.12;55.57
3968;BME280;9221;42.646;23.380;2022-11-04T07:38:31;94550.19;;;18.14;55.96
3968;BME280;9221;42.646;23.380;2022-11-04T07:40:57;94547.91;;;18.52;54.94
3968;BME280;9221;42.646;23.380;2022-11-04T07:43:23;94599.88;;;19.11;53.99
3968;BME280;9221;42.646;23.380;2022-11-04T07:46:18;94593.31;;;19.48;53.00
3968;BME280;9221;42.646;23.380;2022-11-04T07:48:44;94596.63;;;19.70;51.87
3968;BME280;9221;42.646;23.380;2022-11-04T07:51:12;94602.38;;;19.93;52.03
3968;BME280;9221;42.646;23.380;2022-11-04T07:53:39;94624.63;;;20.01;50.60
3968;BME280;9221;42.646;23.380;2022-11-04T07:56:06;94584.28;;;19.69;51.54
3968;BME280;9221;42.646;23.380;2022-11-04T07:58:32;94591.97;;;20.44;49.45
3968;BME280;9221;42.646;23.380;2022-11-04T08:01:02;94588.63;;;20.55;48.67
3968;BME280;9221;42.646;23.380;2022-11-04T08:03:28;94596.41;;;20.77;48.36
3968;BME280;9221;42.646;23.380;2022-11-04T08:05:55;94595.16;;;20.79;48.23
3968;BME280;9221;42.646;23.380;2022-11-04T08:08:21;94589.50;;;21.26;46.87
3968;BME280;9221;42.646;23.380;2022-11-04T08:10:54;94540.75;;;20.79;47.48
3968;BME280;9221;42.646;23.380;2022-11-04T08:13:21;94551.50;;;21.04;47.72
3968;BME280;9221;42.646;23.380;2022-11-04T08:15:47;94578.19;;;21.56;46.31
3968;BME280;9221;42.646;23.380;2022-11-04T08:18:12;94591.97;;;21.85;45.64
3968;BME280;9221;42.646;23.380;2022-11-04T08:20:37;94538.97;;;21.55;44.86
3968;BME280;9221;42.646;23.380;2022-11-04T08:23:03;94565.13;;;21.85;44.47
3968;BME280;9221;42.646;23.380;2022-11-04T08:25:28;94528.66;;;21.77;44.78
3968;BME280;9221;42.646;23.380;2022-11-04T08:27:54;94530.13;;;22.54;43.47
3968;BME280;9221;42.646;23.380;2022-11-04T08:30:19;94530.53;;;22.51;42.94
3968;BME280;9221;42.646;23.380;2022-11-04T08:32:45;94574.34;;;23.19;42.14
3968;BME280;9221;42.646;23.380;2022-11-04T08:35:10;94517.34;;;23.10;41.81
3968;BME280;9221;42.646;23.380;2022-11-04T08:37:36;94497.66;;;22.68;42.80
3968;BME280;9221;42.646;23.380;2022-11-04T08:40:03;94590.63;;;23.06;42.18
3968;BME280;9221;42.646;23.380;2022-11-04T08:42:29;94549.63;;;23.64;41.04
3968;BME280;9221;42.646;23.380;2022-11-04T08:44:55;94511.22;;;23.57;40.70
3968;BME280;9221;42.646;23.380;2022-11-04T08:47:20;94532.56;;;23.94;39.87
3968;BME280;9221;42.646;23.380;2022-11-04T08:49:46;94491.59;;;23.92;39.78
3968;BME280;9221;42.646;23.380;2022-11-04T08:52:11;94552.59;;;24.22;39.33
3968;BME280;9221;42.646;23.380;2022-11-04T08:54:37;94526.91;;;23.60;40.90
3968;BME280;9221;42.646;23.380;2022-11-04T08:57:03;94557.16;;;23.20;41.75
3968;BME280;9221;42.646;23.380;2022-11-04T08:59:28;94469.59;;;22.94;40.60
3968;BME280;9221;42.646;23.380;2022-11-04T09:01:53;94548.88;;;23.03;41.65
3968;BME280;9221;42.646;23.380;2022-11-04T09:04:19;94526.34;;;22.55;42.40
3968;BME280;9221;42.646;23.380;2022-11-04T09:06:45;94544.50;;;21.86;44.55
3968;BME280;9221;42.646;23.380;2022-11-04T09:09:13;94490.91;;;22.77;42.33
3968;BME280;9221;42.646;23.380;2022-11-04T09:11:40;94471.16;;;22.41;41.57
3968;BME280;9221;42.646;23.380;2022-11-04T09:14:06;94545.06;;;22.50;42.00
3968;BME280;9221;42.646;23.380;2022-11-04T09:16:33;94455.41;;;21.26;43.81
3968;BME280;9221;42.646;23.380;2022-11-04T09:18:59;94511.91;;;21.57;44.39
3968;BME280;9221;42.646;23.380;2022-11-04T09:21:26;94454.72;;;22.49;42.25
3968;BME280;9221;42.646;23.380;2022-11-04T09:23:52;94479.28;;;22.15;43.37
3968;BME280;9221;42.646;23.380;2022-11-04T09:26:18;94449.19;;;22.44;42.52
3968;BME280;9221;42.646;23.380;2022-11-04T09:28:44;94447.25;;;22.33;42.20
3968;BME280;9221;42.646;23.380;2022-11-04T09:31:13;94515.19;;;22.03;43.74
3968;BME280;9221;42.646;23.380;2022-11-04T09:33:40;94530.13;;;22.85;42.42
3968;BME280;9221;42.646;23.380;2022-11-04T09:36:06;94394.41;;;21.96;42.74
3968;BME280;9221;42.646;23.380;2022-11-04T09:38:33;94483.72;;;23.43;41.20
3968;BME280;9221;42.646;23.380;2022-11-04T09:40:59;94463.47;;;23.17;40.94
3968;BME280;9221;42.646;23.380;2022-11-04T09:46:10;94501.97;;;23.41;40.92
3968;BME280;9221;42.646;23.380;2022-11-04T09:48:46;94495.34;;;23.91;39.76
3968;BME280;9221;42.646;23.380;2022-11-04T09:51:16;94473.78;;;23.32;40.56
3968;BME280;9221;42.646;23.380;2022-11-04T09:53:50;94405.66;;;23.31;40.00
3968;BME280;9221;42.646;23.380;2022-11-04T09:56:27;94457.09;;;24.18;38.74
3968;BME280;9221;42.646;23.380;2022-11-04T09:58:52;94439.97;;;24.24;37.87
3968;BME280;9221;42.646;23.380;2022-11-04T10:03:57;94445.44;;;24.01;38.83
3968;BME280;9221;42.646;23.380;2022-11-04T10:06:34;94440.28;;;23.16;40.83
3968;BME280;9221;42.646;23.380;2022-11-04T10:09:17;94404.16;;;22.70;41.42
3968;BME280;9221;42.646;23.380;2022-11-04T10:22:43;94378.31;;;20.71;45.89
3968;BME280;9221;42.646;23.380;2022-11-04T10:25:20;94411.13;;;21.17;45.22
3968;BME280;9221;42.646;23.380;2022-11-04T10:27:47;94398.09;;;21.21;45.96
3968;BME280;9221;42.646;23.380;2022-11-04T10:30:17;94384.50;;;20.40;46.19
3968;BME280;9221;42.646;23.380;2022-11-04T10:35:34;94382.19;;;20.43;48.39
3968;BME280;9221;42.646;23.380;2022-11-04T10:40:56;94366.69;;;20.52;48.30
3968;BME280;9221;42.646;23.380;2022-11-04T11:05:14;94315.69;;;20.66;49.38
3968;BME280;9221;42.646;23.380;2022-11-04T11:07:40;94323.66;;;20.47;47.81
3968;BME280;9221;42.646;23.380;2022-11-04T11:10:16;94303.13;;;20.41;47.84
3968;BME280;9221;42.646;23.380;2022-11-04T11:12:52;94251.09;;;19.98;48.33
3968;BME280;9221;42.646;23.380;2022-11-04T11:15:26;94336.38;;;20.26;49.08
3968;BME280;9221;42.646;23.380;2022-11-04T11:18:12;94251.16;;;19.91;48.75
3968;BME280;9221;42.646;23.380;2022-11-04T11:20:40;94312.28;;;20.26;48.42
3968;BME280;9221;42.646;23.380;2022-11-04T11:23:36;94292.78;;;20.19;48.69
3968;BME280;9221;42.646;23.380;2022-11-04T11:26:04;94304.09;;;20.15;48.95
3968;BME280;9221;42.646;23.380;2022-11-04T11:28:31;94285.59;;;20.13;49.02
3968;BME280;9221;42.646;23.380;2022-11-04T11:31:04;94289.19;;;20.25;48.41
3968;BME280;9221;42.646;23.380;2022-11-04T11:33:39;94296.59;;;20.30;48.41
3968;BME280;9221;42.646;23.380;2022-11-04T11:36:13;94147.50;;;19.73;48.22
3968;BME280;9221;42.646;23.380;2022-11-04T11:38:59;94260.25;;;20.41;48.48
3968;BME280;9221;42.646;23.380;2022-11-04T11:41:28;94238.19;;;20.20;48.51
3968;BME280;9221;42.646;23.380;2022-11-04T11:44:00;94258.28;;;20.29;47.99
3968;BME280;9221;42.646;23.380;2022-11-04T11:46:33;94253.56;;;20.50;47.96
3968;BME280;9221;42.646;23.380;2022-11-04T11:49:02;94236.44;;;20.51;47.52
3968;BME280;9221;42.646;23.380;2022-11-04T11:51:35;94257.72;;;20.46;47.29
3968;BME280;9221;42.646;23.380;2022-11-04T11:56:55;94217.63;;;20.58;47.07
3968;BME280;9221;42.646;23.380;2022-11-04T12:02:34;94206.28;;;20.81;46.26
3968;BME280;9221;42.646;23.380;2022-11-04T12:05:10;94233.38;;;20.73;46.36
3968;BME280;9221;42.646;23.380;2022-11-04T12:13:08;94196.88;;;20.53;46.44
3968;BME280;9221;42.646;23.380;2022-11-04T12:21:38;94189.59;;;20.60;46.71
3968;BME280;9221;42.646;23.380;2022-11-04T12:24:29;94192.44;;;20.66;46.29
3968;BME280;9221;42.646;23.380;2022-11-04T12:27:13;94248.84;;;20.71;46.53
3968;BME280;9221;42.646;23.380;2022-11-04T12:32:32;94217.91;;;20.75;46.23
3968;BME280;9221;42.646;23.380;2022-11-04T12:40:27;94218.66;;;20.82;46.05
3968;BME280;9221;42.646;23.380;2022-11-04T12:48:16;94171.00;;;20.66;46.46
3968;BME280;9221;42.646;23.380;2022-11-04T12:56:09;94164.44;;;20.61;47.21
3968;BME280;9221;42.646;23.380;2022-11-04T12:59:28;94162.63;;;20.55;47.25
3968;BME280;9221;42.646;23.380;2022-11-04T13:01:55;94121.69;;;20.29;46.80
3968;BME280;9221;42.646;23.380;2022-11-04T13:04:31;94124.09;;;20.38;46.77
3968;BME280;9221;42.646;23.380;2022-11-04T13:07:02;94170.38;;;20.45;46.28
3968;BME280;9221;42.646;23.380;2022-11-04T13:09:36;94170.25;;;20.77;46.72
3968;BME280;9221;42.646;23.380;2022-11-04T13:12:24;94153.69;;;20.68;46.78
3968;BME280;9221;42.646;23.380;2022-11-04T13:14:54;94120.22;;;20.34;47.57
3968;BME280;9221;42.646;23.380;2022-11-04T13:17:25;94116.13;;;20.31;47.19
3968;BME280;9221;42.646;23.380;2022-11-04T13:19:55;94179.31;;;20.57;47.68
3968;BME280;9221;42.646;23.380;2022-11-04T13:22:25;94126.03;;;20.31;47.67
3968;BME280;9221;42.646;23.380;2022-11-04T13:24:59;94192.50;;;20.59;47.53
3968;BME280;9221;42.646;23.380;2022-11-04T13:27:34;94162.94;;;20.47;47.34
3968;BME280;9221;42.646;23.380;2022-11-04T13:30:21;94172.22;;;20.70;47.10
3968;BME280;9221;42.646;23.380;2022-11-04T13:35:45;94165.22;;;20.69;46.62
3968;BME280;9221;42.646;23.380;2022-11-04T13:38:16;94186.09;;;20.60;46.71
3968;BME280;9221;42.646;23.380;2022-11-04T13:44:10;94148.06;;;20.51;47.02
3968;BME280;9221;42.646;23.380;2022-11-04T13:46:37;94197.06;;;20.77;46.58
3968;BME280;9221;42.646;23.380;2022-11-04T13:49:05;94162.22;;;20.77;46.72
3968;BME280;9221;42.646;23.380;2022-11-04T13:51:44;94200.56;;;20.77;46.51
3968;BME280;9221;42.646;23.380;2022-11-04T13:56:49;94191.22;;;20.61;47.04
3968;BME280;9221;42.646;23.380;2022-11-04T13:59:27;94186.00;;;20.67;47.37
3968;BME280;9221;42.646;23.380;2022-11-04T14:04:44;94155.41;;;20.37;48.11
3968;BME280;9221;42.646;23.380;2022-11-04T14:07:17;94155.09;;;20.27;48.52
3968;BME280;9221;42.646;23.380;2022-11-04T14:14:46;94158.09;;;19.93;49.35
3968;BME280;9221;42.646;23.380;2022-11-04T14:22:51;94156.03;;;20.14;48.78
3968;BME280;9221;42.646;23.380;2022-11-04T14:25:25;94184.31;;;20.10;48.84
3968;BME280;9221;42.646;23.380;2022-11-04T14:27:53;94209.88;;;20.06;49.56
3968;BME280;9221;42.646;23.380;2022-11-04T14:30:33;94154.75;;;19.98;49.79
3968;BME280;9221;42.646;23.380;2022-11-04T14:33:03;94142.19;;;19.99;49.58
3968;BME280;9221;42.646;23.380;2022-11-04T14:35:30;94154.31;;;20.01;49.51
3968;BME280;9221;42.646;23.380;2022-11-04T14:38:02;94157.28;;;19.93;49.84
3968;BME280;9221;42.646;23.380;2022-11-04T14:40:47;94154.47;;;19.81;49.94
3968;BME280;9221;42.646;23.380;2022-11-04T14:43:32;94161.03;;;19.85;49.83
3968;BME280;9221;42.646;23.380;2022-11-04T14:46:00;94137.47;;;19.69;49.81
3968;BME280;9221;42.646;23.380;2022-11-04T14:48:26;94136.09;;;19.59;50.17
3968;BME280;9221;42.646;23.380;2022-11-04T14:50:54;94096.34;;;19.38;50.31
3968;BME280;9221;42.646;23.380;2022-11-04T14:53:35;94174.63;;;19.84;50.37
3968;BME280;9221;42.646;23.380;2022-11-04T14:56:21;94188.47;;;19.74;50.61
3968;BME280;9221;42.646;23.380;2022-11-04T14:59:04;94164.03;;;19.64;50.55
3968;BME280;9221;42.646;23.380;2022-11-04T15:01:33;94175.81;;;19.56;50.48
3968;BME280;9221;42.646;23.380;2022-11-04T15:04:12;94135.59;;;19.44;51.13
3968;BME280;9221;42.646;23.380;2022-11-04T15:06:42;94057.59;;;18.83;51.61
3968;BME280;9221;42.646;23.380;2022-11-04T15:09:20;94086.75;;;18.91;51.52
3968;BME280;9221;42.646;23.380;2022-11-04T15:11:46;94123.25;;;19.11;51.73
3968;BME280;9221;42.646;23.380;2022-11-04T15:14:30;94123.94;;;18.93;52.12
3968;BME280;9221;42.646;23.380;2022-11-04T15:16:57;94105.28;;;18.86;52.10
3968;BME280;9221;42.646;23.380;2022-11-04T15:19:33;94106.31;;;18.85;51.87
3968;BME280;9221;42.646;23.380;2022-11-04T15:22:01;94079.53;;;18.53;52.42
3968;BME280;9221;42.646;23.380;2022-11-04T15:24:28;94105.81;;;18.56;52.10
3968;BME280;9221;42.646;23.380;2022-11-04T15:27:05;94129.34;;;18.80;51.74
3968;BME280;9221;42.646;23.380;2022-11-04T15:29:31;94129.63;;;18.65;52.25
3968;BME280;9221;42.646;23.380;2022-11-04T15:32:02;94146.03;;;18.68;52.04
3968;BME280;9221;42.646;23.380;2022-11-04T15:34:29;94180.16;;;18.59;52.59
3968;BME280;9221;42.646;23.380;2022-11-04T15:36:58;94078.00;;;18.19;53.11
3968;BME280;9221;42.646;23.380;2022-11-04T15:39:40;94078.47;;;18.02;53.27